Time;durP1;ratioP1;P1;durP2;ratioP2;P2;SDS_P1;SDS_P2;PMS_P1;PMS_P2;Temp;Humidity;BMP_temperature;BMP_pressure;BME280_temperature;BME280_humidity;BME280_pressure;Samples;Min_cycle;Max_cycle;Signal;HPM_P1;HPM_P2
2021/12/17 00:02:11;;;;;;;5.93;0.80;;;2.00;99.90;;;;;;5065320;28;20395;-89
2021/12/17 00:04:30;;;;;;;5.07;0.80;;;2.00;99.90;;;;;;5068917;28;20753;-90
2021/12/17 00:06:58;;;;;;;4.47;1.15;;;2.00;99.90;;;;;;5056206;28;20402;-90
2021/12/17 00:09:26;;;;;;;6.30;0.95;;;2.00;99.90;;;;;;5055772;28;20425;-89
2021/12/17 00:11:53;;;;;;;3.47;0.90;;;2.00;99.90;;;;;;5071279;28;20469;-90
2021/12/17 00:14:29;;;;;;;4.90;0.63;;;2.00;99.90;;;;;;5072241;28;20447;-88
2021/12/17 00:17:01;;;;;;;5.60;0.82;;;2.00;99.90;;;;;;5055945;28;20887;-89
2021/12/17 00:53:17;;;;;;;6.75;0.70;;;2.10;99.90;;;;;;5070726;28;20822;-90
2021/12/17 00:55:45;;;;;;;3.38;0.85;;;2.00;99.90;;;;;;5038214;28;20404;-90
2021/12/17 00:58:13;;;;;;;4.22;0.70;;;2.00;99.90;;;;;;5051846;28;20387;-90
2021/12/17 01:00:40;;;;;;;4.07;0.80;;;2.00;99.90;;;;;;5068214;28;20441;-91
2021/12/17 01:03:09;;;;;;;4.70;0.70;;;2.00;99.90;;;;;;5066905;28;20396;-90
2021/12/17 01:05:38;;;;;;;5.40;0.77;;;2.00;99.90;;;;;;5039097;28;20418;-90
2021/12/17 01:08:07;;;;;;;5.45;0.75;;;2.00;99.90;;;;;;5053186;28;20396;-90
2021/12/17 01:10:41;;;;;;;6.43;0.70;;;2.10;99.90;;;;;;5071392;28;20394;-90
2021/12/17 01:13:48;;;;;;;7.10;0.90;;;2.00;99.90;;;;;;5365253;22;21307;-85
2021/12/17 01:16:16;;;;;;;3.03;0.60;;;2.10;99.90;;;;;;5036948;28;20428;-87
2021/12/17 01:19:19;;;;;;;5.05;0.85;;;2.10;99.90;;;;;;5032873;28;20397;-87
2021/12/17 01:22:38;;;;;;;6.38;0.70;;;2.00;99.90;;;;;;5047337;28;20405;-87
2021/12/17 01:25:20;;;;;;;4.43;0.80;;;2.10;99.90;;;;;;5046763;28;20410;-87
2021/12/17 01:37:40;;;;;;;5.60;0.93;;;2.00;99.90;;;;;;5031742;28;20401;-86
2021/12/17 01:42:35;;;;;;;3.20;0.60;;;2.00;99.90;;;;;;5047263;28;20451;-87
2021/12/17 01:45:04;;;;;;;5.55;0.70;;;2.10;99.90;;;;;;5034037;28;20392;-87
2021/12/17 01:47:32;;;;;;;3.50;0.50;;;2.00;99.90;;;;;;5050697;28;20426;-88
2021/12/17 01:55:50;;;;;;;4.28;0.65;;;2.00;99.90;;;;;;5030504;28;20475;-87
2021/12/17 02:01:06;;;;;;;5.85;0.80;;;2.00;99.90;;;;;;5047030;28;20922;-88
2021/12/17 02:03:34;;;;;;;2.50;0.60;;;2.00;99.90;;;;;;5030490;28;20401;-87
2021/12/17 02:06:03;;;;;;;5.75;0.80;;;2.00;99.90;;;;;;5046934;28;20397;-87
2021/12/17 02:08:32;;;;;;;5.00;0.75;;;2.00;99.90;;;;;;5046995;28;20397;-87
2021/12/17 02:33:15;;;;;;;3.50;0.60;;;1.90;99.90;;;;;;5066481;28;20426;-86
2021/12/17 02:35:45;;;;;;;4.03;0.77;;;1.90;99.90;;;;;;5048620;28;20924;-87
2021/12/17 02:38:14;;;;;;;5.90;0.70;;;1.90;99.90;;;;;;5049933;28;20518;-87
2021/12/17 02:47:09;;;;;;;5.20;0.80;;;1.90;99.90;;;;;;5070159;28;20465;-88
2021/12/17 02:49:40;;;;;;;4.63;0.60;;;1.80;99.90;;;;;;5053597;28;20410;-87
2021/12/17 02:52:09;;;;;;;5.60;0.77;;;1.80;99.90;;;;;;5053681;28;20399;-88
2021/12/17 02:54:38;;;;;;;6.93;0.90;;;1.80;99.90;;;;;;5053340;28;20944;-87
2021/12/17 02:57:08;;;;;;;6.38;0.98;;;1.90;99.90;;;;;;5050341;28;20409;-88
2021/12/17 02:59:36;;;;;;;6.03;0.80;;;1.90;99.90;;;;;;5033355;28;20389;-87
2021/12/17 03:02:10;;;;;;;6.60;0.88;;;1.80;99.90;;;;;;5051146;28;20407;-87
2021/12/17 03:04:42;;;;;;;5.43;0.80;;;1.80;99.90;;;;;;5053259;28;20446;-87
2021/12/17 03:07:14;;;;;;;2.80;0.65;;;1.80;99.90;;;;;;5036608;28;20400;-86
2021/12/17 03:12:19;;;;;;;4.80;0.70;;;1.80;99.90;;;;;;5053232;28;20434;-87
2021/12/17 03:14:58;;;;;;;4.70;0.70;;;1.80;99.90;;;;;;5052770;28;20466;-86
2021/12/17 03:17:56;;;;;;;3.72;0.60;;;1.80;99.90;;;;;;5039348;28;20893;-86
2021/12/17 03:25:50;;;;;;;6.00;0.80;;;1.80;99.90;;;;;;5052696;28;20475;-87
2021/12/17 03:28:20;;;;;;;6.97;0.90;;;1.80;99.90;;;;;;5052730;28;20396;-87
2021/12/17 03:30:49;;;;;;;4.68;0.80;;;1.80;99.90;;;;;;5036441;28;20408;-87
2021/12/17 03:33:17;;;;;;;4.75;0.82;;;1.80;99.90;;;;;;5036291;28;20422;-86
2021/12/17 03:35:45;;;;;;;4.78;0.90;;;1.80;99.90;;;;;;5036047;28;20400;-86
2021/12/17 03:38:13;;;;;;;5.10;0.50;;;1.80;99.90;;;;;;5036087;28;20427;-87
2021/12/17 03:40:42;;;;;;;3.33;0.60;;;1.80;99.90;;;;;;5052462;28;20420;-87
2021/12/17 03:43:21;;;;;;;4.65;0.70;;;1.80;99.90;;;;;;5036562;28;20396;-86
2021/12/17 03:45:50;;;;;;;5.50;0.70;;;1.80;99.90;;;;;;5052544;28;20391;-87
2021/12/17 03:48:18;;;;;;;6.43;0.90;;;1.80;99.90;;;;;;5035306;28;20395;-86
2021/12/17 03:50:46;;;;;;;3.80;0.65;;;1.70;99.90;;;;;;5052584;28;20928;-88
2021/12/17 03:53:14;;;;;;;5.18;0.60;;;1.80;99.90;;;;;;5052253;28;20466;-87
2021/12/17 03:55:42;;;;;;;3.70;0.57;;;1.80;99.90;;;;;;5052560;28;20415;-88
2021/12/17 03:58:10;;;;;;;6.83;0.70;;;1.80;99.90;;;;;;5052113;28;20408;-86
2021/12/17 04:00:42;;;;;;;4.28;0.70;;;1.80;99.90;;;;;;5046456;28;20887;-87
2021/12/17 04:03:10;;;;;;;4.35;0.70;;;1.70;99.90;;;;;;5032423;28;20390;-88
2021/12/17 04:05:52;;;;;;;2.72;0.50;;;1.70;99.90;;;;;;5032247;28;20910;-87
2021/12/17 04:08:39;;;;;;;4.95;0.80;;;1.70;99.90;;;;;;5046353;28;20377;-86
2021/12/17 04:11:36;;;;;;;6.28;0.75;;;1.70;99.90;;;;;;5032745;28;20402;-86
2021/12/17 04:14:11;;;;;;;3.80;0.65;;;1.70;99.90;;;;;;5048369;28;20413;-86
2021/12/17 04:16:52;;;;;;;3.83;0.55;;;1.70;99.90;;;;;;5032133;28;20413;-88
2021/12/17 04:19:19;;;;;;;5.13;0.80;;;1.70;99.90;;;;;;5031979;28;20452;-86
2021/12/17 04:21:47;;;;;;;5.28;0.85;;;1.70;99.90;;;;;;5031897;28;20400;-87
2021/12/17 04:24:14;;;;;;;4.95;0.80;;;1.70;99.90;;;;;;5031894;28;20406;-88
2021/12/17 04:26:43;;;;;;;3.22;0.70;;;1.70;99.90;;;;;;5031783;28;20417;-87
2021/12/17 04:29:18;;;;;;;4.20;0.70;;;1.70;99.90;;;;;;5031832;28;20891;-86
2021/12/17 04:31:52;;;;;;;4.35;0.70;;;1.70;99.90;;;;;;5031713;28;20467;-87
2021/12/17 04:34:23;;;;;;;4.27;0.70;;;1.70;99.90;;;;;;5031619;28;20452;-87
2021/12/17 04:36:54;;;;;;;4.05;0.60;;;1.60;99.90;;;;;;5031651;28;20405;-86
2021/12/17 04:39:29;;;;;;;4.03;0.70;;;1.70;99.90;;;;;;5041678;28;20411;-86
2021/12/17 04:42:03;;;;;;;3.60;0.60;;;1.70;99.90;;;;;;5051315;28;20396;-86
2021/12/17 04:44:36;;;;;;;6.20;0.80;;;1.70;99.90;;;;;;5034991;28;20797;-87
2021/12/17 04:58:13;;;;;;;3.00;0.70;;;1.60;99.90;;;;;;5051056;28;20395;-86
2021/12/17 05:00:40;;;;;;;4.07;0.75;;;1.60;99.90;;;;;;5048918;28;20889;-86
2021/12/17 05:03:16;;;;;;;3.92;0.50;;;1.60;99.90;;;;;;5043625;28;20392;-88
2021/12/17 05:05:47;;;;;;;3.58;0.68;;;1.60;99.90;;;;;;5047708;28;20414;-88
2021/12/17 05:08:24;;;;;;;2.83;0.60;;;1.60;99.90;;;;;;5031778;28;20398;-86
2021/12/17 05:11:24;;;;;;;5.88;0.70;;;1.60;99.90;;;;;;5048926;28;20449;-87
2021/12/17 05:19:34;;;;;;;4.03;0.67;;;1.60;99.90;;;;;;5065377;28;20401;-87
2021/12/17 05:22:06;;;;;;;4.05;0.60;;;1.60;99.90;;;;;;5047485;28;20405;-88
2021/12/17 05:24:33;;;;;;;5.47;0.60;;;1.60;99.90;;;;;;5043176;28;20490;-86
2021/12/17 05:27:05;;;;;;;5.32;0.75;;;1.60;99.90;;;;;;5034960;28;20965;-87
2021/12/17 05:29:39;;;;;;;3.20;0.68;;;1.60;99.90;;;;;;5035200;28;20396;-86
2021/12/17 05:32:08;;;;;;;4.28;0.65;;;1.60;99.90;;;;;;5046841;28;20393;-86
2021/12/17 05:34:36;;;;;;;4.97;0.70;;;1.60;99.90;;;;;;5057796;28;20399;-87
2021/12/17 05:37:08;;;;;;;4.65;0.73;;;1.60;99.90;;;;;;5050361;28;20895;-86
2021/12/17 05:39:36;;;;;;;4.63;0.63;;;1.50;99.90;;;;;;5033947;28;20426;-87
2021/12/17 05:42:05;;;;;;;3.75;0.60;;;1.50;99.90;;;;;;5017827;28;20408;-86
2021/12/17 05:44:52;;;;;;;6.25;0.98;;;1.60;99.90;;;;;;5035000;28;20394;-87
2021/12/17 05:47:20;;;;;;;6.03;0.90;;;1.50;99.90;;;;;;5047237;28;20874;-87
2021/12/17 05:49:48;;;;;;;4.55;1.02;;;1.50;99.90;;;;;;5047143;28;20398;-87
2021/12/17 05:52:15;;;;;;;5.80;0.80;;;1.50;99.90;;;;;;5046762;28;20421;-86
2021/12/17 05:54:43;;;;;;;4.07;1.20;;;1.50;99.90;;;;;;5030395;28;20425;-88
2021/12/17 05:57:11;;;;;;;6.45;0.88;;;1.50;99.90;;;;;;5049865;28;20494;-85
2021/12/17 05:59:42;;;;;;;4.80;0.60;;;1.50;99.90;;;;;;5031069;28;20385;-88
2021/12/17 06:02:11;;;;;;;4.93;1.45;;;1.50;99.90;;;;;;5030322;28;20952;-86
2021/12/17 06:04:47;;;;;;;5.43;1.20;;;1.50;99.90;;;;;;5041319;28;20504;-87
2021/12/17 06:07:25;;;;;;;5.45;0.93;;;1.50;99.90;;;;;;5070154;28;20444;-86
2021/12/17 06:09:57;;;;;;;6.70;1.00;;;1.50;99.90;;;;;;5053822;28;20452;-86
2021/12/17 06:12:26;;;;;;;4.32;0.80;;;1.50;99.90;;;;;;5072873;28;20394;-86
2021/12/17 06:14:54;;;;;;;6.13;1.10;;;1.60;99.90;;;;;;5057441;28;20405;-88
2021/12/17 06:17:22;;;;;;;4.03;0.88;;;1.50;99.90;;;;;;5074041;28;20927;-87
2021/12/17 06:19:50;;;;;;;5.90;1.07;;;1.50;99.90;;;;;;5047767;28;20408;-87
2021/12/17 06:22:18;;;;;;;5.07;0.82;;;1.50;99.90;;;;;;5066290;28;20426;-86
2021/12/17 06:24:50;;;;;;;5.97;1.13;;;1.50;99.90;;;;;;5050863;28;20443;-87
2021/12/17 06:27:19;;;;;;;8.95;1.80;;;1.50;99.90;;;;;;5036776;28;20422;-87
2021/12/17 06:29:47;;;;;;;5.78;0.80;;;1.50;99.90;;;;;;5047754;28;20392;-86
2021/12/17 06:32:17;;;;;;;5.28;1.13;;;1.50;99.90;;;;;;5053531;28;20396;-88
2021/12/17 06:34:46;;;;;;;6.18;0.73;;;1.50;99.90;;;;;;5037264;28;20408;-86
2021/12/17 06:37:17;;;;;;;5.63;0.90;;;1.50;99.90;;;;;;5053405;28;20523;-86
2021/12/17 06:39:46;;;;;;;6.00;0.80;;;1.50;99.90;;;;;;5047200;28;20405;-86
2021/12/17 06:42:16;;;;;;;5.78;0.90;;;1.50;99.90;;;;;;5034023;28;20899;-87
2021/12/17 06:44:47;;;;;;;3.37;0.70;;;1.50;99.90;;;;;;5033719;28;20410;-86
2021/12/17 06:47:28;;;;;;;4.78;1.30;;;1.50;99.90;;;;;;5033431;28;20421;-86
2021/12/17 06:56:51;;;;;;;4.28;0.80;;;1.50;99.90;;;;;;5033418;28;20744;-86
2021/12/17 06:59:37;;;;;;;2.97;0.57;;;1.50;99.90;;;;;;5043028;28;20778;-86
2021/12/17 07:17:32;;;;;;;5.00;0.80;;;1.60;99.90;;;;;;5052743;28;20982;-86
2021/12/17 07:28:10;;;;;;;4.88;0.80;;;1.60;99.90;;;;;;5052658;28;20453;-87
2021/12/17 07:33:39;;;;;;;3.45;0.55;;;1.60;99.90;;;;;;5052504;28;20395;-86
2021/12/17 07:36:26;;;;;;;4.15;0.90;;;1.60;99.90;;;;;;5066915;28;20399;-86
2021/12/17 07:39:01;;;;;;;2.35;0.60;;;1.60;99.90;;;;;;5052445;28;20392;-87
2021/12/17 07:41:34;;;;;;;2.50;0.70;;;1.60;99.90;;;;;;5052611;28;20438;-86
2021/12/17 07:44:22;;;;;;;2.42;0.50;;;1.50;99.90;;;;;;5065818;28;20427;-86
2021/12/17 07:47:08;;;;;;;6.43;0.73;;;1.50;99.90;;;;;;5049855;28;20403;-86
2021/12/17 07:49:35;;;;;;;3.47;0.80;;;1.50;99.90;;;;;;5032243;28;20402;-86
2021/12/17 07:52:03;;;;;;;2.67;0.73;;;1.60;99.90;;;;;;5049043;28;20386;-88
2021/12/17 07:54:31;;;;;;;4.60;0.70;;;1.60;99.90;;;;;;5049182;28;20389;-85
2021/12/17 07:56:59;;;;;;;3.70;0.73;;;1.60;99.90;;;;;;5060382;28;20850;-86
2021/12/17 07:59:26;;;;;;;5.78;0.60;;;1.50;99.90;;;;;;5052042;28;20746;-85
2021/12/17 08:01:55;;;;;;;4.57;0.80;;;1.50;99.90;;;;;;5052024;28;20399;-86
2021/12/17 08:04:25;;;;;;;3.53;0.80;;;1.60;99.90;;;;;;5051985;28;20406;-87
2021/12/17 08:07:00;;;;;;;6.07;0.67;;;1.60;99.90;;;;;;5051850;28;20396;-87
2021/12/17 08:09:32;;;;;;;3.70;0.60;;;1.60;99.90;;;;;;5051885;28;20392;-84
2021/12/17 08:12:05;;;;;;;3.92;0.80;;;1.60;99.90;;;;;;5051848;28;20412;-85
2021/12/17 08:14:41;;;;;;;5.07;0.70;;;1.50;99.90;;;;;;5051628;28;20511;-86
2021/12/17 08:25:16;;;;;;;4.15;0.63;;;1.60;99.90;;;;;;5051544;28;20885;-85
2021/12/17 08:28:12;;;;;;;3.97;0.60;;;1.60;99.90;;;;;;5051965;28;20400;-86
2021/12/17 08:30:40;;;;;;;5.97;0.85;;;1.60;99.90;;;;;;5051166;28;20415;-86
2021/12/17 08:33:26;;;;;;;4.47;0.63;;;1.60;99.90;;;;;;5068044;28;20905;-85
2021/12/17 08:35:57;;;;;;;4.60;0.70;;;1.60;99.90;;;;;;5050183;28;20431;-86
2021/12/17 08:38:36;;;;;;;2.78;0.60;;;1.60;99.90;;;;;;5031314;28;20398;-85
2021/12/17 08:41:26;;;;;;;4.35;0.75;;;1.60;99.90;;;;;;5032291;28;20488;-85
2021/12/17 08:43:54;;;;;;;6.03;0.70;;;1.60;99.90;;;;;;5031844;28;20493;-86
2021/12/17 08:46:23;;;;;;;3.15;0.55;;;1.60;99.90;;;;;;5031273;28;20393;-85
2021/12/17 08:49:05;;;;;;;3.00;0.57;;;1.60;99.90;;;;;;5043203;28;20409;-86
2021/12/17 08:51:33;;;;;;;2.10;0.68;;;1.60;99.90;;;;;;5032709;28;20389;-86
2021/12/17 08:54:02;;;;;;;3.67;0.60;;;1.60;99.90;;;;;;5030997;28;20755;-85
2021/12/17 08:56:34;;;;;;;4.15;0.60;;;1.60;99.90;;;;;;5047449;28;20417;-85
2021/12/17 08:59:04;;;;;;;6.15;0.70;;;1.60;99.90;;;;;;5047639;28;20469;-85
2021/12/17 09:02:01;;;;;;;4.22;0.70;;;1.60;99.90;;;;;;5043705;28;20701;-85
2021/12/17 09:04:31;;;;;;;2.45;0.63;;;1.60;99.90;;;;;;5047837;28;20404;-86
2021/12/17 09:07:00;;;;;;;2.90;0.73;;;1.60;99.90;;;;;;5030787;28;20598;-86
2021/12/17 09:09:28;;;;;;;1.70;0.40;;;1.60;99.90;;;;;;5043867;28;20463;-85
2021/12/17 09:12:01;;;;;;;1.38;0.40;;;1.60;99.90;;;;;;5030720;28;20748;-86
2021/12/17 09:14:35;;;;;;;2.55;0.45;;;1.60;99.90;;;;;;5014825;28;20467;-86
2021/12/17 09:17:26;;;;;;;2.75;0.50;;;1.60;99.90;;;;;;5030108;28;20397;-85
2021/12/17 09:19:54;;;;;;;1.27;0.38;;;1.60;99.90;;;;;;5047128;28;20405;-84
2021/12/17 09:22:24;;;;;;;3.53;0.70;;;1.50;99.90;;;;;;5030925;28;20397;-85
2021/12/17 09:24:58;;;;;;;2.08;0.50;;;1.50;99.90;;;;;;5031599;28;20408;-86
2021/12/17 09:27:32;;;;;;;2.47;0.60;;;1.50;99.90;;;;;;5030746;28;20459;-85
2021/12/17 09:30:09;;;;;;;1.60;0.50;;;1.50;99.90;;;;;;5046657;28;20383;-86
2021/12/17 09:32:40;;;;;;;3.10;0.80;;;1.50;99.90;;;;;;5049596;28;20414;-85
2021/12/17 09:35:14;;;;;;;3.40;0.50;;;1.40;99.90;;;;;;5031540;28;20455;-85
2021/12/17 09:37:42;;;;;;;2.15;0.50;;;1.40;99.90;;;;;;5046708;28;20397;-85
2021/12/17 09:40:11;;;;;;;2.78;0.50;;;1.40;99.90;;;;;;5031759;28;20390;-86
2021/12/17 09:42:41;;;;;;;3.22;0.47;;;1.40;99.90;;;;;;5030367;28;20811;-86
2021/12/17 09:45:09;;;;;;;2.03;0.50;;;1.50;99.90;;;;;;5046926;28;20898;-85
2021/12/17 09:47:37;;;;;;;1.20;0.50;;;1.50;99.90;;;;;;5031024;28;20484;-86
2021/12/17 09:50:06;;;;;;;1.00;0.40;;;1.50;99.90;;;;;;5031464;28;20401;-85
2021/12/17 09:52:34;;;;;;;1.63;0.50;;;1.50;99.90;;;;;;5030955;28;20390;-84
2021/12/17 09:55:03;;;;;;;2.20;0.70;;;1.50;99.90;;;;;;5031530;28;20393;-85
2021/12/17 09:57:35;;;;;;;2.17;0.50;;;1.50;99.90;;;;;;5030983;28;20397;-86
2021/12/17 10:00:13;;;;;;;1.35;0.50;;;1.50;99.90;;;;;;5020101;28;20428;-87
2021/12/17 10:02:46;;;;;;;2.40;0.50;;;1.50;99.90;;;;;;5030746;28;20816;-85
2021/12/17 10:05:16;;;;;;;1.70;0.80;;;1.50;99.90;;;;;;5031987;28;20443;-84
2021/12/17 10:07:45;;;;;;;1.47;0.50;;;1.50;99.90;;;;;;5030172;28;20397;-86
2021/12/17 10:10:13;;;;;;;4.07;0.70;;;1.50;99.90;;;;;;5040743;28;20761;-85
2021/12/17 10:12:41;;;;;;;1.90;0.50;;;1.50;99.90;;;;;;5050240;28;20399;-85
2021/12/17 10:15:16;;;;;;;1.73;0.47;;;1.50;99.90;;;;;;5051117;28;20404;-85
2021/12/17 10:18:00;;;;;;;2.55;0.45;;;1.50;99.90;;;;;;5050048;28;20403;-86
2021/12/17 10:20:31;;;;;;;1.60;0.35;;;1.50;99.90;;;;;;5051183;28;20388;-85
2021/12/17 10:23:06;;;;;;;1.48;0.38;;;1.40;99.90;;;;;;5049933;28;20400;-85
2021/12/17 10:25:38;;;;;;;2.88;0.50;;;1.40;99.90;;;;;;5051101;28;20392;-85
2021/12/17 10:28:06;;;;;;;2.00;0.57;;;1.50;99.90;;;;;;5051090;28;20420;-84
2021/12/17 10:30:41;;;;;;;3.90;0.40;;;1.40;99.90;;;;;;5049838;28;20396;-85
2021/12/17 10:33:14;;;;;;;2.28;0.50;;;1.40;99.90;;;;;;5051103;28;20466;-84
2021/12/17 10:35:45;;;;;;;1.65;0.30;;;1.40;99.90;;;;;;5049800;28;20398;-85
2021/12/17 10:38:16;;;;;;;1.30;0.40;;;1.50;99.90;;;;;;5049857;28;20907;-84
2021/12/17 10:40:52;;;;;;;2.05;0.50;;;1.50;99.90;;;;;;5051065;28;20388;-84
2021/12/17 10:43:28;;;;;;;3.35;0.30;;;1.50;99.90;;;;;;5050021;28;20772;-84
2021/12/17 10:48:48;;;;;;;2.33;0.50;;;1.40;99.90;;;;;;5051018;28;20395;-84
2021/12/17 10:51:20;;;;;;;0.65;0.30;;;1.40;99.90;;;;;;5049866;28;20392;-84
2021/12/17 10:53:54;;;;;;;1.83;0.40;;;1.40;99.90;;;;;;5049665;28;20762;-85
2021/12/17 10:56:41;;;;;;;2.03;0.43;;;1.40;99.90;;;;;;5050975;28;20408;-84
2021/12/17 10:59:12;;;;;;;0.93;0.43;;;1.40;99.90;;;;;;5068385;28;20391;-84
2021/12/17 11:01:48;;;;;;;1.02;0.57;;;1.40;99.90;;;;;;5054530;28;20390;-85
2021/12/17 11:04:24;;;;;;;1.15;0.40;;;1.40;99.90;;;;;;5054383;28;20390;-84
2021/12/17 11:06:58;;;;;;;1.52;0.50;;;1.40;99.90;;;;;;5054553;28;20384;-85
2021/12/17 11:09:42;;;;;;;2.03;0.40;;;1.40;99.90;;;;;;5069695;28;20387;-85
2021/12/17 11:12:29;;;;;;;1.65;0.50;;;1.40;99.90;;;;;;5052982;28;20471;-85
2021/12/17 11:15:19;;;;;;;4.10;0.43;;;1.40;99.90;;;;;;5052822;28;20998;-85
2021/12/17 11:17:55;;;;;;;1.40;0.50;;;1.40;99.90;;;;;;5052822;28;20407;-85
2021/12/17 11:20:29;;;;;;;1.30;0.55;;;1.40;99.90;;;;;;5069545;28;20396;-85
2021/12/17 11:23:03;;;;;;;1.70;0.40;;;1.40;99.90;;;;;;5054111;28;20501;-86
2021/12/17 11:25:32;;;;;;;1.40;0.50;;;1.40;99.90;;;;;;5054033;28;20392;-85
2021/12/17 11:28:00;;;;;;;1.35;0.40;;;1.40;99.90;;;;;;5069658;28;20483;-84
2021/12/17 11:30:32;;;;;;;1.20;0.30;;;1.40;99.90;;;;;;5053896;28;20804;-84
2021/12/17 11:33:02;;;;;;;1.95;0.30;;;1.40;99.90;;;;;;5052674;28;20431;-84
2021/12/17 11:35:32;;;;;;;1.85;0.40;;;1.40;99.90;;;;;;5054198;28;20400;-85
2021/12/17 11:38:04;;;;;;;3.10;0.50;;;1.40;99.90;;;;;;5054008;28;20407;-84
2021/12/17 11:40:52;;;;;;;1.42;0.40;;;1.40;99.90;;;;;;5069152;28;20398;-84
2021/12/17 11:43:36;;;;;;;1.17;0.40;;;1.40;99.90;;;;;;5053631;28;20912;-85
2021/12/17 11:46:07;;;;;;;2.20;0.40;;;1.40;99.90;;;;;;5052495;28;20400;-85
2021/12/17 11:48:35;;;;;;;1.45;0.50;;;1.40;99.90;;;;;;5051250;28;20400;-85
2021/12/17 11:51:09;;;;;;;2.22;0.40;;;1.40;99.90;;;;;;5068833;28;20716;-85
2021/12/17 11:54:03;;;;;;;3.30;0.60;;;1.40;99.90;;;;;;5037052;28;20941;-84
2021/12/17 11:56:31;;;;;;;1.95;0.50;;;1.40;99.90;;;;;;5031177;28;20406;-85
2021/12/17 11:58:59;;;;;;;0.95;0.40;;;1.40;99.90;;;;;;5033299;28;20390;-84
2021/12/17 12:02:00;;;;;;;1.60;0.70;;;1.40;99.90;;;;;;5040654;28;20387;-85
2021/12/17 12:04:34;;;;;;;1.23;0.50;;;1.40;99.90;;;;;;5068832;28;20433;-85
2021/12/17 12:07:25;;;;;;;1.60;0.40;;;1.40;99.90;;;;;;5068458;28;20391;-84
2021/12/17 12:10:06;;;;;;;2.17;0.60;;;1.40;99.90;;;;;;5052058;28;20494;-85
2021/12/17 12:12:34;;;;;;;0.90;0.52;;;1.40;99.90;;;;;;5053204;28;20391;-85
2021/12/17 12:15:32;;;;;;;1.00;0.40;;;1.40;99.90;;;;;;5051742;28;20418;-85
2021/12/17 12:18:18;;;;;;;1.55;0.60;;;1.40;99.90;;;;;;5049693;28;20395;-85
2021/12/17 12:23:20;;;;;;;1.77;0.65;;;1.50;99.90;;;;;;5036830;28;20462;-86
2021/12/17 12:26:11;;;;;;;1.63;0.57;;;1.40;99.90;;;;;;5052665;28;20384;-85
2021/12/17 12:28:45;;;;;;;1.25;0.45;;;1.40;99.90;;;;;;5021220;28;20467;-86
2021/12/17 12:31:26;;;;;;;1.17;0.40;;;1.40;99.90;;;;;;5048144;28;20484;-85
2021/12/17 12:34:12;;;;;;;2.10;0.50;;;1.40;99.90;;;;;;5061986;28;20885;-86
2021/12/17 12:37:14;;;;;;;0.93;0.35;;;1.40;99.90;;;;;;5037228;28;20433;-86
2021/12/17 12:39:55;;;;;;;1.52;0.40;;;1.30;99.90;;;;;;5066564;28;20735;-86
2021/12/17 12:42:25;;;;;;;1.30;0.45;;;1.30;99.90;;;;;;5048869;28;20395;-86
2021/12/17 12:44:55;;;;;;;2.78;0.60;;;1.30;99.90;;;;;;5041495;28;20455;-86
2021/12/17 12:47:26;;;;;;;1.63;0.30;;;1.30;99.90;;;;;;5032448;28;20393;-86
2021/12/17 12:50:06;;;;;;;1.00;0.40;;;1.30;99.90;;;;;;5032555;28;20412;-86
2021/12/17 12:52:46;;;;;;;1.30;0.40;;;1.30;99.90;;;;;;5031080;28;20914;-85
2021/12/17 12:55:18;;;;;;;1.38;0.60;;;1.20;99.90;;;;;;5032354;28;20396;-84
2021/12/17 12:57:49;;;;;;;0.77;0.43;;;1.20;99.90;;;;;;5032213;28;20467;-84
2021/12/17 13:00:23;;;;;;;1.77;0.50;;;1.20;99.90;;;;;;5047393;28;20390;-85
2021/12/17 13:03:04;;;;;;;0.73;0.40;;;1.20;99.90;;;;;;5038748;28;20410;-84
2021/12/17 13:05:33;;;;;;;1.25;0.50;;;1.20;99.90;;;;;;5057064;28;20410;-85
2021/12/17 13:08:03;;;;;;;1.02;0.43;;;1.20;99.90;;;;;;5072031;28;20887;-85
2021/12/17 13:10:36;;;;;;;1.17;0.50;;;1.10;99.90;;;;;;5071908;28;20484;-85
2021/12/17 13:13:17;;;;;;;2.65;0.57;;;1.10;99.90;;;;;;5069521;28;20429;-85
2021/12/17 13:16:02;;;;;;;1.70;0.60;;;1.10;99.90;;;;;;5068254;28;20471;-85
2021/12/17 13:26:38;;;;;;;1.58;0.60;;;1.00;99.90;;;;;;5044460;28;20398;-86
2021/12/17 13:29:13;;;;;;;1.77;0.73;;;1.10;99.90;;;;;;5050998;28;20940;-87
2021/12/17 13:32:04;;;;;;;3.13;0.80;;;1.10;99.90;;;;;;5050459;28;20388;-86
2021/12/17 13:34:49;;;;;;;3.40;0.95;;;1.00;99.90;;;;;;5050506;28;20388;-84
2021/12/17 13:37:20;;;;;;;2.00;0.70;;;1.00;99.90;;;;;;5050591;28;20446;-86
2021/12/17 13:40:23;;;;;;;3.05;0.65;;;1.00;99.90;;;;;;5050516;28;20862;-87
2021/12/17 13:42:51;;;;;;;1.43;0.70;;;1.00;99.90;;;;;;5049609;28;20380;-85
2021/12/17 13:45:21;;;;;;;2.28;0.60;;;1.00;99.90;;;;;;5051497;28;20878;-84
2021/12/17 13:47:55;;;;;;;1.88;0.68;;;1.00;99.90;;;;;;5050436;28;20794;-85
2021/12/17 13:50:32;;;;;;;1.33;0.70;;;1.00;99.90;;;;;;5050284;28;20945;-85
2021/12/17 13:53:03;;;;;;;1.60;0.65;;;0.90;99.90;;;;;;5050398;28;20394;-85
2021/12/17 13:55:54;;;;;;;1.20;0.73;;;1.00;99.90;;;;;;5051328;28;20392;-85
2021/12/17 13:58:24;;;;;;;2.50;0.87;;;1.00;99.90;;;;;;5048514;28;20396;-85
2021/12/17 14:00:54;;;;;;;2.10;0.77;;;1.00;99.90;;;;;;5048283;28;20495;-86
2021/12/17 14:03:28;;;;;;;2.15;0.90;;;1.00;99.90;;;;;;5048681;28;20483;-85
2021/12/17 14:06:19;;;;;;;1.63;0.70;;;0.90;99.90;;;;;;5050174;28;20387;-84
2021/12/17 14:08:46;;;;;;;2.28;0.70;;;1.00;99.90;;;;;;5050172;28;20416;-86
2021/12/17 14:11:28;;;;;;;1.97;0.63;;;1.00;99.90;;;;;;5050166;28;20398;-85
2021/12/17 14:14:27;;;;;;;3.72;0.90;;;0.90;99.90;;;;;;5036152;28;20411;-86
2021/12/17 14:17:00;;;;;;;0.88;0.70;;;0.90;99.90;;;;;;5033563;28;20465;-86
2021/12/17 14:19:43;;;;;;;3.05;0.75;;;1.00;99.90;;;;;;5049945;28;20431;-85
2021/12/17 14:22:32;;;;;;;1.60;0.60;;;1.00;99.90;;;;;;5049881;28;20394;-85
2021/12/17 14:25:00;;;;;;;1.92;1.00;;;1.00;99.90;;;;;;5049920;28;20462;-86
2021/12/17 14:27:47;;;;;;;1.20;0.80;;;1.00;99.90;;;;;;5051103;28;20380;-85
2021/12/17 14:30:14;;;;;;;2.33;0.82;;;1.00;99.90;;;;;;5049621;28;20392;-86
2021/12/17 14:32:48;;;;;;;1.88;0.75;;;1.00;99.90;;;;;;5035113;28;20409;-85
2021/12/17 14:35:36;;;;;;;1.97;0.70;;;0.90;99.90;;;;;;5053700;28;20383;-86
2021/12/17 14:38:04;;;;;;;2.35;0.70;;;0.90;99.90;;;;;;5053677;28;20410;-86
2021/12/17 14:40:48;;;;;;;1.50;0.80;;;1.00;99.90;;;;;;5036793;28;20584;-85
2021/12/17 14:43:25;;;;;;;2.78;0.73;;;0.90;99.90;;;;;;5043930;28;20856;-86
2021/12/17 14:46:18;;;;;;;1.50;0.80;;;1.00;99.90;;;;;;5050556;28;20385;-86
2021/12/17 14:49:03;;;;;;;3.73;0.87;;;0.90;99.90;;;;;;5034824;28;20480;-86
2021/12/17 15:05:40;;;;;;;4.90;2.55;;;1.00;99.90;;;;;;5069967;28;20396;-86
2021/12/17 15:08:11;;;;;;;1.90;0.80;;;1.00;99.90;;;;;;5037115;28;20929;-85
2021/12/17 15:10:39;;;;;;;12.23;7.97;;;1.00;99.90;;;;;;5052982;28;20422;-86
2021/12/17 15:13:07;;;;;;;2.58;1.33;;;1.00;99.90;;;;;;5054046;28;20384;-85
2021/12/17 15:15:38;;;;;;;6.10;2.88;;;1.00;99.90;;;;;;5053856;28;20427;-85
2021/12/17 15:18:14;;;;;;;2.53;0.70;;;0.90;99.90;;;;;;5052959;28;20403;-85
2021/12/17 15:20:44;;;;;;;4.00;1.95;;;1.00;99.90;;;;;;5054066;28;20392;-87
2021/12/17 15:23:13;;;;;;;3.38;1.25;;;1.00;99.90;;;;;;5054250;28;20889;-86
2021/12/17 15:25:41;;;;;;;0.90;0.60;;;1.00;99.90;;;;;;5052684;28;20807;-85
2021/12/17 15:28:11;;;;;;;2.20;0.95;;;1.00;99.90;;;;;;5052499;28;20734;-86
2021/12/17 15:30:50;;;;;;;2.35;0.90;;;1.00;99.90;;;;;;5053771;28;20413;-86
2021/12/17 15:33:18;;;;;;;1.92;0.80;;;1.00;99.90;;;;;;5036024;28;20420;-86
2021/12/17 15:35:46;;;;;;;1.73;0.70;;;1.00;99.90;;;;;;5053153;28;20423;-85
2021/12/17 15:38:14;;;;;;;0.98;0.60;;;1.00;99.90;;;;;;5037348;28;20492;-85
2021/12/17 15:40:45;;;;;;;2.65;0.70;;;1.00;99.90;;;;;;5049303;28;20398;-87
2021/12/17 15:43:15;;;;;;;10.57;5.32;;;1.00;99.90;;;;;;5049208;28;20818;-85
2021/12/17 15:45:45;;;;;;;3.70;2.27;;;1.00;99.90;;;;;;5048268;28;20401;-85
2021/12/17 15:48:14;;;;;;;1.83;0.82;;;1.00;99.90;;;;;;5032511;28;20405;-85
2021/12/17 15:51:02;;;;;;;1.67;0.73;;;1.10;99.90;;;;;;5034070;28;20485;-84
2021/12/17 15:53:31;;;;;;;1.13;0.70;;;1.00;99.90;;;;;;5045196;28;20456;-85
2021/12/17 15:55:59;;;;;;;2.20;0.70;;;1.00;99.90;;;;;;5039605;28;20416;-85
2021/12/17 15:58:26;;;;;;;2.47;0.73;;;1.00;99.90;;;;;;5032170;28;20401;-86
2021/12/17 16:00:54;;;;;;;2.33;0.80;;;1.00;99.90;;;;;;5032414;28;20390;-85
2021/12/17 16:03:30;;;;;;;1.27;0.60;;;1.10;99.90;;;;;;5034724;28;20500;-85
2021/12/17 16:05:59;;;;;;;1.35;0.80;;;1.10;99.90;;;;;;5032448;28;20414;-85
2021/12/17 16:08:26;;;;;;;1.63;0.80;;;1.00;99.90;;;;;;5048503;28;20760;-85
2021/12/17 16:20:59;;;;;;;2.00;0.67;;;1.00;99.90;;;;;;5033053;28;20464;-85
2021/12/17 16:21:45;;;;;;;1.53;0.80;;;1.00;99.90;;;;;;5032960;28;20949;-87
2021/12/17 16:24:13;;;;;;;1.23;0.70;;;1.00;99.90;;;;;;5052916;28;20414;-85
2021/12/17 16:26:41;;;;;;;3.07;0.73;;;1.00;99.90;;;;;;5053016;28;20386;-85
2021/12/17 16:29:13;;;;;;;2.20;0.73;;;1.00;99.90;;;;;;5052697;28;20873;-85
2021/12/17 16:31:40;;;;;;;3.50;0.80;;;1.00;99.90;;;;;;5035047;28;20470;-86
2021/12/17 16:34:08;;;;;;;2.53;0.70;;;1.00;99.90;;;;;;5051260;28;20384;-85
2021/12/17 16:36:38;;;;;;;4.47;2.15;;;1.00;99.90;;;;;;5034996;28;20395;-86
2021/12/17 16:39:09;;;;;;;1.90;0.73;;;1.00;99.90;;;;;;5051101;28;20404;-85